createdAt,value
2018-03-31T00:00:24.368Z,0.00
2018-03-31T00:01:24.294Z,0.00
2018-03-31T00:02:24.249Z,0.00
2018-03-31T00:03:24.198Z,0.00
2018-03-31T00:04:24.152Z,0.00
2018-03-31T00:05:24.129Z,0.00
2018-03-31T00:06:24.052Z,0.00
2018-03-31T00:07:24.010Z,0.00
2018-03-31T00:08:23.959Z,0.00
2018-03-31T00:09:23.911Z,0.00
2018-03-31T00:10:23.885Z,0.00
2018-03-31T00:11:23.815Z,0.00
2018-03-31T00:12:23.767Z,0.00
2018-03-31T00:13:23.718Z,0.00
2018-03-31T00:14:23.671Z,0.00
2018-03-31T00:15:23.646Z,0.00
2018-03-31T00:16:23.572Z,0.00
2018-03-31T00:17:23.528Z,0.00
2018-03-31T00:18:23.476Z,0.00
2018-03-31T00:19:23.429Z,0.00
2018-03-31T00:20:23.406Z,0.00
2018-03-31T00:21:23.335Z,0.00
2018-03-31T00:22:23.285Z,0.00
2018-03-31T00:23:23.235Z,0.00
2018-03-31T00:24:23.188Z,0.00
2018-03-31T00:25:23.188Z,0.00
2018-03-31T00:26:23.091Z,0.00
2018-03-31T00:27:23.047Z,0.00
2018-03-31T00:28:22.994Z,0.00
2018-03-31T00:29:22.950Z,0.00
2018-03-31T00:30:22.922Z,0.00
2018-03-31T00:31:22.850Z,0.00
2018-03-31T00:32:22.800Z,0.00
2018-03-31T00:33:22.750Z,0.00
2018-03-31T00:34:22.702Z,0.00
2018-03-31T00:35:22.684Z,0.00
2018-03-31T00:36:22.607Z,0.00
2018-03-31T00:37:22.557Z,0.00
2018-03-31T00:38:22.513Z,0.00
2018-03-31T00:39:22.461Z,0.00
2018-03-31T00:40:22.439Z,0.00
2018-03-31T00:41:22.364Z,0.00
2018-03-31T00:42:22.321Z,0.00
2018-03-31T00:43:22.271Z,0.00
2018-03-31T00:44:22.221Z,0.00
2018-03-31T00:45:22.194Z,0.00
2018-03-31T00:46:22.123Z,0.00
2018-03-31T00:47:22.073Z,0.00
2018-03-31T00:48:22.031Z,0.00
2018-03-31T00:49:21.977Z,0.00
2018-03-31T00:50:21.957Z,0.00
2018-03-31T00:51:21.882Z,0.00
2018-03-31T00:52:21.834Z,0.00
2018-03-31T00:53:21.784Z,0.00
2018-03-31T00:54:21.737Z,0.00
2018-03-31T00:55:21.714Z,0.00
2018-03-31T00:56:21.638Z,0.00
2018-03-31T00:57:21.587Z,0.00
2018-03-31T00:58:21.545Z,0.00
2018-03-31T00:59:21.496Z,0.00
2018-03-31T01:00:21.477Z,0.00
2018-03-31T01:01:21.401Z,0.00
2018-03-31T01:02:21.352Z,0.00
2018-03-31T01:03:21.303Z,0.00
2018-03-31T01:04:21.258Z,0.00
2018-03-31T01:05:21.206Z,0.00
2018-03-31T01:06:21.190Z,0.00
2018-03-31T01:07:21.107Z,0.00
2018-03-31T01:08:21.062Z,0.00
2018-03-31T01:09:21.013Z,0.00
2018-03-31T01:10:20.963Z,0.00
2018-03-31T01:11:20.942Z,0.00
2018-03-31T01:12:20.873Z,0.00
2018-03-31T01:13:20.823Z,0.00
2018-03-31T01:14:20.771Z,0.00
2018-03-31T01:15:20.726Z,0.00
2018-03-31T01:16:20.698Z,0.00
2018-03-31T01:17:20.632Z,0.00
2018-03-31T01:18:20.582Z,0.00
2018-03-31T01:19:20.532Z,0.00
2018-03-31T01:20:20.501Z,0.00
2018-03-31T01:21:20.457Z,0.00
2018-03-31T01:22:20.384Z,0.00
2018-03-31T01:23:20.335Z,0.00
2018-03-31T01:24:20.289Z,0.00
2018-03-31T01:25:20.243Z,0.00
2018-03-31T01:26:20.218Z,0.00
2018-03-31T01:27:20.149Z,0.00
2018-03-31T01:28:20.100Z,0.00
2018-03-31T01:29:20.052Z,0.00
2018-03-31T01:30:20.004Z,0.00
2018-03-31T01:31:19.978Z,0.00
2018-03-31T01:32:19.911Z,0.00
2018-03-31T01:33:19.856Z,0.00
2018-03-31T01:34:19.807Z,0.00
2018-03-31T01:35:19.760Z,0.00
2018-03-31T01:36:19.738Z,0.00
2018-03-31T01:37:19.669Z,0.00
2018-03-31T01:38:19.617Z,0.00
2018-03-31T01:39:19.572Z,0.00
2018-03-31T01:40:19.522Z,0.00
2018-03-31T01:41:19.498Z,0.00
2018-03-31T01:42:19.433Z,0.00
2018-03-31T01:43:19.380Z,0.00
2018-03-31T01:44:19.328Z,0.00
2018-03-31T01:45:19.284Z,0.00
2018-03-31T01:46:19.274Z,0.00
2018-03-31T01:47:19.187Z,0.00
2018-03-31T01:48:19.135Z,0.00
2018-03-31T01:49:19.091Z,0.00
2018-03-31T01:50:19.044Z,0.00
2018-03-31T01:51:19.017Z,0.00
2018-03-31T01:52:18.944Z,0.00
2018-03-31T01:53:18.898Z,0.00
2018-03-31T01:54:18.848Z,0.00
2018-03-31T01:55:18.801Z,0.00
2018-03-31T01:56:18.779Z,0.00
2018-03-31T01:57:18.702Z,0.00
2018-03-31T01:58:18.656Z,0.00
2018-03-31T01:59:18.609Z,0.00
2018-03-31T02:00:18.561Z,0.00
2018-03-31T02:01:18.538Z,0.00
2018-03-31T02:02:18.474Z,0.00
2018-03-31T02:03:18.416Z,0.00
2018-03-31T02:04:18.363Z,0.00
2018-03-31T02:05:18.322Z,0.00
2018-03-31T02:07:49.876Z,0.00
2018-03-31T02:08:49.802Z,0.00
2018-03-31T02:09:49.754Z,0.00
2018-03-31T02:10:49.731Z,0.00
2018-03-31T02:11:49.658Z,0.00
2018-03-31T02:12:49.610Z,0.00
2018-03-31T02:13:49.561Z,0.00
2018-03-31T02:14:49.514Z,0.00
2018-03-31T02:15:49.483Z,0.00
2018-03-31T02:16:49.413Z,0.00
2018-03-31T02:17:49.364Z,0.00
2018-03-31T02:18:49.317Z,0.00
2018-03-31T02:19:49.273Z,0.00
2018-03-31T02:20:49.251Z,0.00
2018-03-31T02:21:49.172Z,0.00
2018-03-31T02:22:49.125Z,0.00
2018-03-31T02:23:49.077Z,0.00
2018-03-31T02:24:49.025Z,0.00
2018-03-31T02:25:48.975Z,0.00
2018-03-31T02:26:48.961Z,0.00
2018-03-31T02:27:48.882Z,0.00
2018-03-31T02:28:48.835Z,0.00
2018-03-31T02:29:48.788Z,0.00
2018-03-31T02:30:48.740Z,0.00
2018-03-31T02:31:48.711Z,0.00
2018-03-31T02:32:48.641Z,0.00
2018-03-31T02:33:48.590Z,0.00
2018-03-31T02:34:48.548Z,0.00
2018-03-31T02:35:48.493Z,0.00
2018-03-31T02:36:48.469Z,0.00
2018-03-31T02:37:48.397Z,0.00
2018-03-31T02:38:48.353Z,0.00
2018-03-31T02:39:48.304Z,0.00
2018-03-31T02:40:48.250Z,0.00
2018-03-31T02:41:48.223Z,0.00
2018-03-31T02:42:48.156Z,0.00
2018-03-31T02:43:48.105Z,0.00
2018-03-31T02:44:48.059Z,0.00
2018-03-31T02:45:48.011Z,0.00
2018-03-31T02:46:47.981Z,0.00
2018-03-31T02:47:47.925Z,0.00
2018-03-31T02:48:47.865Z,0.00
2018-03-31T02:49:47.811Z,0.00
2018-03-31T02:50:47.764Z,0.00
2018-03-31T02:51:47.740Z,0.00
2018-03-31T02:52:47.669Z,0.00
2018-03-31T02:53:47.621Z,0.00
2018-03-31T02:54:47.571Z,0.00
2018-03-31T02:55:47.527Z,0.00
2018-03-31T02:56:47.501Z,0.00
2018-03-31T02:57:47.434Z,0.00
2018-03-31T02:58:47.372Z,0.00
2018-03-31T02:59:47.326Z,0.00
2018-03-31T03:00:47.288Z,0.00
2018-03-31T03:01:47.256Z,0.00
2018-03-31T03:02:47.188Z,0.00
2018-03-31T03:03:47.133Z,0.00
2018-03-31T03:04:47.081Z,0.00
2018-03-31T03:05:47.037Z,0.00
2018-03-31T03:06:47.014Z,0.00
2018-03-31T03:07:46.936Z,0.00
2018-03-31T03:08:46.882Z,0.00
2018-03-31T03:09:46.836Z,0.00
2018-03-31T03:10:46.785Z,0.00
2018-03-31T03:11:46.757Z,0.00
2018-03-31T03:12:46.685Z,0.00
2018-03-31T03:13:46.640Z,0.00
2018-03-31T03:14:46.590Z,0.00
2018-03-31T03:15:46.542Z,0.00
2018-03-31T03:16:46.513Z,0.00
2018-03-31T03:17:46.441Z,0.00
2018-03-31T03:18:46.404Z,0.00
2018-03-31T03:19:46.344Z,0.00
2018-03-31T03:20:46.295Z,0.00
2018-03-31T03:21:46.271Z,0.00
2018-03-31T03:22:46.197Z,0.00
2018-03-31T03:23:46.146Z,0.00
2018-03-31T03:24:46.098Z,0.00
2018-03-31T03:25:46.050Z,0.00
2018-03-31T03:26:46.023Z,0.00
2018-03-31T03:27:45.949Z,0.00
2018-03-31T03:28:45.906Z,0.00
2018-03-31T03:29:45.862Z,0.00
2018-03-31T03:30:45.807Z,0.00
2018-03-31T03:31:45.782Z,0.00
2018-03-31T03:32:45.707Z,0.00
2018-03-31T03:33:45.656Z,0.00
2018-03-31T03:34:45.605Z,0.00
2018-03-31T03:35:45.556Z,0.00
2018-03-31T03:36:45.533Z,0.00
2018-03-31T03:37:45.459Z,0.00
2018-03-31T03:38:45.411Z,0.00
2018-03-31T03:39:45.364Z,0.00
2018-03-31T03:40:45.315Z,0.00
2018-03-31T03:41:45.288Z,0.00
2018-03-31T03:42:45.220Z,0.00
2018-03-31T03:43:45.167Z,0.00
2018-03-31T03:44:45.115Z,0.00
2018-03-31T03:45:45.067Z,0.00
2018-03-31T03:46:45.042Z,0.00
2018-03-31T03:47:44.972Z,0.00
2018-03-31T03:48:44.918Z,0.00
2018-03-31T03:49:44.873Z,0.00
2018-03-31T03:50:44.824Z,0.00
2018-03-31T03:51:44.797Z,0.00
2018-03-31T03:52:44.726Z,0.00
2018-03-31T03:53:44.682Z,0.00
2018-03-31T03:54:44.628Z,0.00
2018-03-31T03:55:44.578Z,0.00
2018-03-31T03:56:44.555Z,0.00
2018-03-31T03:57:44.483Z,0.00
2018-03-31T03:58:44.438Z,0.00
2018-03-31T03:59:44.390Z,0.00
2018-03-31T04:00:44.333Z,0.00
2018-03-31T04:01:44.310Z,0.00
2018-03-31T04:02:44.239Z,0.00
2018-03-31T04:03:44.191Z,0.00
2018-03-31T04:04:44.139Z,0.00
2018-03-31T04:05:44.097Z,0.00
2018-03-31T04:06:44.065Z,0.00
2018-03-31T04:07:43.992Z,0.00
2018-03-31T04:08:43.941Z,0.00
2018-03-31T04:09:43.895Z,0.00
2018-03-31T04:10:43.847Z,0.00
2018-03-31T04:11:43.821Z,0.00
2018-03-31T04:12:43.748Z,0.00
2018-03-31T04:13:43.706Z,0.00
2018-03-31T04:14:43.667Z,0.00
2018-03-31T04:15:43.601Z,0.00
2018-03-31T04:16:43.575Z,0.00
2018-03-31T04:17:43.504Z,0.00
2018-03-31T04:18:43.459Z,0.00
2018-03-31T04:19:43.404Z,0.00
2018-03-31T04:20:43.356Z,0.00
2018-03-31T04:21:43.331Z,0.00
2018-03-31T04:22:43.267Z,0.00
2018-03-31T04:23:43.212Z,0.00
2018-03-31T04:24:43.161Z,0.00
2018-03-31T04:25:43.113Z,0.00
2018-03-31T04:26:43.091Z,0.00
2018-03-31T04:27:43.015Z,0.00
2018-03-31T04:28:42.967Z,0.00
2018-03-31T04:29:42.917Z,0.00
2018-03-31T04:30:42.866Z,0.00
2018-03-31T04:31:42.843Z,0.00
2018-03-31T04:32:42.774Z,0.00
2018-03-31T04:33:42.721Z,0.00
2018-03-31T04:34:42.671Z,0.00
2018-03-31T04:35:42.628Z,0.00
2018-03-31T04:36:42.594Z,0.00
2018-03-31T04:37:42.526Z,0.00
2018-03-31T04:38:42.479Z,0.00
2018-03-31T04:39:42.429Z,0.00
2018-03-31T04:40:42.381Z,0.00
2018-03-31T04:41:42.352Z,4.00
2018-03-31T04:42:42.281Z,4.00
2018-03-31T04:43:42.232Z,4.00
2018-03-31T04:44:42.185Z,4.00
2018-03-31T04:45:42.136Z,8.00
2018-03-31T04:46:42.111Z,4.00
2018-03-31T04:47:42.040Z,8.00
2018-03-31T04:48:41.995Z,4.00
2018-03-31T04:49:41.941Z,8.00
2018-03-31T04:50:41.891Z,8.00
2018-03-31T04:51:41.866Z,12.00
2018-03-31T04:52:41.791Z,12.00
2018-03-31T04:53:41.750Z,12.00
2018-03-31T04:54:41.695Z,16.00
2018-03-31T04:55:41.648Z,16.00
2018-03-31T04:56:41.622Z,16.00
2018-03-31T04:57:41.552Z,16.00
2018-03-31T04:58:41.503Z,24.00
2018-03-31T04:59:41.453Z,24.00
2018-03-31T05:00:41.404Z,32.00
2018-03-31T05:01:48.468Z,36.00
2018-03-31T05:02:41.309Z,36.00
2018-03-31T05:03:41.259Z,28.00
2018-03-31T05:04:41.209Z,24.00
2018-03-31T05:05:41.157Z,24.00
2018-03-31T05:06:41.136Z,28.00
2018-03-31T05:07:41.063Z,28.00
2018-03-31T05:08:41.013Z,32.00
2018-03-31T05:09:40.964Z,36.00
2018-03-31T05:10:40.916Z,40.00
2018-03-31T05:11:40.899Z,52.00
2018-03-31T05:12:40.818Z,56.00
2018-03-31T05:13:40.768Z,64.00
2018-03-31T05:14:40.721Z,64.00
2018-03-31T05:15:40.670Z,72.00
2018-03-31T05:16:40.651Z,84.00
2018-03-31T05:17:40.575Z,96.00
2018-03-31T05:18:40.529Z,104.00
2018-03-31T05:19:40.478Z,112.00
2018-03-31T05:20:40.429Z,116.00
2018-03-31T05:21:40.405Z,112.00
2018-03-31T05:22:40.334Z,108.00
2018-03-31T05:23:40.284Z,108.00
2018-03-31T05:24:40.235Z,116.00
2018-03-31T05:25:40.186Z,132.00
2018-03-31T05:26:40.159Z,144.00
2018-03-31T05:27:40.097Z,156.00
2018-03-31T05:28:40.043Z,172.00
2018-03-31T05:29:39.993Z,188.00
2018-03-31T05:30:39.941Z,204.00
2018-03-31T05:31:47.081Z,216.00
2018-03-31T05:32:39.847Z,228.00
2018-03-31T05:33:39.798Z,240.00
2018-03-31T05:34:39.749Z,252.00
2018-03-31T05:35:39.699Z,272.00
2018-03-31T05:36:39.675Z,292.00
2018-03-31T05:37:39.604Z,300.00
2018-03-31T05:38:39.554Z,312.00
2018-03-31T05:39:39.508Z,316.00
2018-03-31T05:40:39.459Z,316.00
2018-03-31T05:41:39.406Z,320.00
2018-03-31T05:42:39.383Z,332.00
2018-03-31T05:43:39.309Z,348.00
2018-03-31T05:44:39.262Z,356.00
2018-03-31T05:45:39.216Z,364.00
2018-03-31T05:46:39.163Z,356.00
2018-03-31T05:47:39.137Z,348.00
2018-03-31T05:48:39.066Z,340.00
2018-03-31T05:49:39.021Z,344.00
2018-03-31T05:50:38.973Z,352.00
2018-03-31T05:51:38.921Z,348.00
2018-03-31T05:52:38.893Z,356.00
2018-03-31T05:53:38.826Z,372.00
2018-03-31T05:54:38.779Z,396.00
2018-03-31T05:55:38.724Z,420.00
2018-03-31T05:56:38.677Z,456.00
2018-03-31T05:57:38.657Z,488.00
2018-03-31T05:58:38.579Z,520.00
2018-03-31T05:59:38.532Z,556.00
2018-03-31T06:00:38.479Z,584.00
2018-03-31T06:01:38.435Z,612.00
2018-03-31T06:02:38.413Z,644.00
2018-03-31T06:03:38.396Z,684.00
2018-03-31T06:04:38.289Z,732.00
2018-03-31T06:05:38.242Z,776.00
2018-03-31T06:06:38.195Z,808.00
2018-03-31T06:07:38.173Z,832.00
2018-03-31T06:08:38.096Z,848.00
2018-03-31T06:09:38.062Z,856.00
2018-03-31T06:10:37.999Z,860.00
2018-03-31T06:11:37.952Z,864.00
2018-03-31T06:12:37.927Z,868.00
2018-03-31T06:13:37.852Z,864.00
2018-03-31T06:14:37.805Z,844.00
2018-03-31T06:15:37.762Z,828.00
2018-03-31T06:16:37.714Z,824.00
2018-03-31T06:17:37.687Z,832.00
2018-03-31T06:18:37.612Z,844.00
2018-03-31T06:19:37.565Z,848.00
2018-03-31T06:20:37.514Z,856.00
2018-03-31T06:21:37.473Z,872.00
2018-03-31T06:22:37.441Z,920.00
2018-03-31T06:23:37.373Z,1000.00
2018-03-31T06:24:37.317Z,1096.00
2018-03-31T06:25:37.276Z,1192.00
2018-03-31T06:26:37.227Z,1292.00
2018-03-31T06:27:37.201Z,1384.00
2018-03-31T06:28:37.129Z,1376.00
2018-03-31T06:29:37.081Z,1412.00
2018-03-31T06:30:37.036Z,1512.00
2018-03-31T06:31:36.985Z,1588.00
2018-03-31T06:32:36.961Z,1568.00
2018-03-31T06:33:36.890Z,1612.00
2018-03-31T06:34:36.841Z,1692.00
2018-03-31T06:35:36.790Z,1828.00
2018-03-31T06:36:36.742Z,1884.00
2018-03-31T06:37:36.721Z,1876.00
2018-03-31T06:38:36.649Z,1904.00
2018-03-31T06:39:36.600Z,1964.00
2018-03-31T06:40:36.553Z,2064.00
2018-03-31T06:41:36.500Z,2104.00
2018-03-31T06:42:36.477Z,2164.00
2018-03-31T06:43:36.407Z,2236.00
2018-03-31T06:44:36.358Z,2360.00
2018-03-31T06:45:36.316Z,2444.00
2018-03-31T06:46:36.263Z,2488.00
2018-03-31T06:47:36.245Z,2596.00
2018-03-31T06:48:36.169Z,2740.00
2018-03-31T06:49:36.179Z,2936.00
2018-03-31T06:50:36.071Z,3064.00
2018-03-31T06:51:36.026Z,3084.00
2018-03-31T06:52:35.997Z,3304.00
2018-03-31T06:53:35.925Z,3636.00
2018-03-31T06:54:35.879Z,3716.00
2018-03-31T06:55:35.830Z,3740.00
2018-03-31T06:56:35.782Z,3908.00
2018-03-31T06:57:35.763Z,4180.00
2018-03-31T06:58:35.686Z,4376.00
2018-03-31T06:59:35.638Z,4512.00
2018-03-31T07:00:35.589Z,4460.00
2018-03-31T07:01:35.539Z,4396.00
2018-03-31T07:02:35.521Z,4380.00
2018-03-31T07:03:35.446Z,4424.00
2018-03-31T07:04:35.402Z,4700.00
2018-03-31T07:05:35.348Z,4972.00
2018-03-31T07:06:35.301Z,5088.00
2018-03-31T07:07:35.284Z,5072.00
2018-03-31T07:08:35.208Z,5092.00
2018-03-31T07:09:35.158Z,5008.00
2018-03-31T07:10:35.111Z,4876.00
2018-03-31T07:11:35.064Z,4804.00
2018-03-31T07:12:35.039Z,4716.00
2018-03-31T07:13:34.967Z,4672.00
2018-03-31T07:14:34.920Z,4676.00
2018-03-31T07:15:34.890Z,4628.00
2018-03-31T07:16:34.823Z,4548.00
2018-03-31T07:17:34.799Z,4320.00
2018-03-31T07:18:34.727Z,4100.00
2018-03-31T07:19:34.681Z,3924.00
2018-03-31T07:20:34.634Z,3832.00
2018-03-31T07:21:34.587Z,3696.00
2018-03-31T07:22:34.574Z,3728.00
2018-03-31T07:23:34.497Z,3776.00
2018-03-31T07:24:34.441Z,3928.00
2018-03-31T07:25:34.396Z,4128.00
2018-03-31T07:26:34.345Z,4028.00
2018-03-31T07:27:34.325Z,4284.00
2018-03-31T07:28:34.255Z,4436.00
2018-03-31T07:29:34.198Z,4544.00
2018-03-31T07:30:34.154Z,4408.00
2018-03-31T07:31:34.107Z,4368.00
2018-03-31T07:32:34.077Z,4488.00
2018-03-31T07:33:34.012Z,4728.00
2018-03-31T07:34:33.962Z,4864.00
2018-03-31T07:35:33.919Z,4976.00
2018-03-31T07:36:33.865Z,5216.00
2018-03-31T07:37:33.843Z,5352.00
2018-03-31T07:38:33.772Z,5496.00
2018-03-31T07:39:33.725Z,5648.00
2018-03-31T07:40:33.674Z,5708.00
2018-03-31T07:41:33.627Z,5676.00
2018-03-31T07:42:33.597Z,5192.00
2018-03-31T07:43:33.529Z,4696.00
2018-03-31T07:44:33.481Z,4320.00
2018-03-31T07:45:33.436Z,4204.00
2018-03-31T07:46:33.387Z,4044.00
2018-03-31T07:47:33.361Z,4020.00
2018-03-31T07:48:33.289Z,4124.00
2018-03-31T07:49:33.240Z,4216.00
2018-03-31T07:50:33.192Z,4284.00
2018-03-31T07:51:33.152Z,4220.00
2018-03-31T07:52:33.124Z,4164.00
2018-03-31T07:53:33.050Z,4140.00
2018-03-31T07:54:33.002Z,4160.00
2018-03-31T07:55:32.955Z,4168.00
2018-03-31T07:56:32.907Z,4288.00
2018-03-31T07:57:32.883Z,4268.00
2018-03-31T07:58:32.813Z,4432.00
2018-03-31T07:59:32.765Z,4268.00
2018-03-31T08:00:32.715Z,4324.00
2018-03-31T08:01:32.667Z,4184.00
2018-03-31T08:02:32.646Z,4272.00
2018-03-31T08:03:32.572Z,4436.00
2018-03-31T08:04:32.536Z,4608.00
2018-03-31T08:05:32.475Z,4936.00
2018-03-31T08:06:32.440Z,4932.00
2018-03-31T08:07:32.404Z,5276.00
2018-03-31T08:08:32.332Z,5324.00
2018-03-31T08:09:32.288Z,4836.00
2018-03-31T08:10:32.239Z,4940.00
2018-03-31T08:11:32.188Z,5036.00
2018-03-31T08:12:32.166Z,5316.00
2018-03-31T08:13:32.092Z,5100.00
2018-03-31T08:14:32.087Z,4692.00
2018-03-31T08:15:31.996Z,4632.00
2018-03-31T08:16:31.973Z,4624.00
2018-03-31T08:17:31.925Z,4604.00
2018-03-31T08:18:31.851Z,4612.00
2018-03-31T08:19:31.810Z,4708.00
2018-03-31T08:20:31.759Z,4844.00
2018-03-31T08:21:31.717Z,5160.00
2018-03-31T08:22:31.685Z,5344.00
2018-03-31T08:23:31.619Z,5312.00
2018-03-31T08:24:31.599Z,5264.00
2018-03-31T08:25:31.518Z,5464.00
2018-03-31T08:26:31.474Z,5508.00
2018-03-31T08:27:31.448Z,5276.00
2018-03-31T08:28:31.378Z,5324.00
2018-03-31T08:29:31.329Z,5292.00
2018-03-31T08:30:31.322Z,5292.00
2018-03-31T08:31:31.233Z,5016.00
2018-03-31T08:32:31.208Z,5064.00
2018-03-31T08:33:31.135Z,4856.00
2018-03-31T08:34:31.089Z,4560.00
2018-03-31T08:35:31.041Z,4716.00
2018-03-31T08:36:30.994Z,4372.00
2018-03-31T08:37:30.972Z,4528.00
2018-03-31T08:38:30.901Z,4636.00
2018-03-31T08:39:30.854Z,4612.00
2018-03-31T08:40:30.805Z,4648.00
2018-03-31T08:41:30.755Z,4760.00
2018-03-31T08:42:30.738Z,4408.00
2018-03-31T08:43:30.662Z,4612.00
2018-03-31T08:44:30.617Z,4960.00
2018-03-31T08:45:30.568Z,5072.00
2018-03-31T08:46:30.526Z,4796.00
2018-03-31T08:47:30.494Z,4524.00
2018-03-31T08:48:30.423Z,4524.00
2018-03-31T08:49:30.379Z,4516.00
2018-03-31T08:50:30.333Z,4632.00
2018-03-31T08:51:30.286Z,4424.00
2018-03-31T08:52:30.259Z,4392.00
2018-03-31T08:53:30.192Z,4296.00
2018-03-31T08:54:30.143Z,4572.00
2018-03-31T08:55:30.099Z,4948.00
2018-03-31T08:56:30.049Z,4652.00
2018-03-31T08:57:30.040Z,4848.00
2018-03-31T08:58:29.958Z,4984.00
2018-03-31T08:59:29.907Z,5540.00
2018-03-31T09:00:29.857Z,4844.00
2018-03-31T09:01:29.816Z,4704.00
2018-03-31T09:02:29.766Z,5120.00
2018-03-31T09:03:29.737Z,4768.00
2018-03-31T09:04:29.668Z,4780.00
2018-03-31T09:05:29.623Z,5180.00
2018-03-31T09:06:29.579Z,5096.00
2018-03-31T09:07:29.530Z,4860.00
2018-03-31T09:08:29.506Z,5312.00
2018-03-31T09:09:29.436Z,5424.00
2018-03-31T09:10:29.390Z,4976.00
2018-03-31T09:11:29.343Z,4640.00
2018-03-31T09:12:29.294Z,5188.00
2018-03-31T09:13:29.266Z,5572.00
2018-03-31T09:14:29.204Z,5448.00
2018-03-31T09:15:29.156Z,5536.00
2018-03-31T09:16:29.109Z,5480.00
2018-03-31T09:17:29.064Z,5740.00
2018-03-31T09:18:29.042Z,6376.00
2018-03-31T09:19:28.987Z,6924.00
2018-03-31T09:20:28.926Z,7428.00
2018-03-31T09:21:28.874Z,8280.00
2018-03-31T09:22:28.827Z,9392.00
2018-03-31T09:25:00.383Z,9952.00
2018-03-31T09:26:00.318Z,10276.00
2018-03-31T09:27:00.267Z,10000.00
2018-03-31T09:28:00.242Z,9032.00
2018-03-31T09:29:00.172Z,8132.00
2018-03-31T09:30:00.129Z,7296.00
2018-03-31T09:31:00.083Z,7128.00
2018-03-31T09:32:00.035Z,6992.00
2018-03-31T09:33:00.024Z,6976.00
2018-03-31T09:33:59.941Z,6860.00
2018-03-31T09:34:59.895Z,7128.00
2018-03-31T09:35:59.852Z,7448.00
2018-03-31T09:36:59.808Z,8352.00
2018-03-31T09:37:59.789Z,9596.00
2018-03-31T09:38:59.709Z,9492.00
2018-03-31T09:39:59.679Z,10504.00
2018-03-31T09:40:59.624Z,11212.00
2018-03-31T09:41:59.571Z,12652.00
2018-03-31T09:42:59.552Z,12960.00
2018-03-31T09:43:59.483Z,11308.00
2018-03-31T09:44:59.437Z,10800.00
2018-03-31T09:45:59.393Z,11228.00
2018-03-31T09:46:59.351Z,10916.00
2018-03-31T09:47:59.322Z,9084.00
2018-03-31T09:48:59.254Z,7644.00
2018-03-31T09:49:59.207Z,6492.00
2018-03-31T09:50:59.162Z,5620.00
2018-03-31T09:51:59.112Z,5108.00
2018-03-31T09:52:59.093Z,5068.00
2018-03-31T09:53:59.023Z,5588.00
2018-03-31T09:54:58.978Z,6216.00
2018-03-31T09:55:58.930Z,6988.00
2018-03-31T09:56:58.910Z,7816.00
2018-03-31T09:57:58.864Z,8948.00
2018-03-31T09:58:58.796Z,9148.00
2018-03-31T09:59:58.762Z,7036.00
2018-03-31T10:00:58.705Z,6376.00
2018-03-31T10:01:58.662Z,6972.00
2018-03-31T10:02:58.710Z,8064.00
2018-03-31T10:03:58.567Z,8776.00
2018-03-31T10:04:58.535Z,8988.00
2018-03-31T10:05:58.499Z,9420.00
2018-03-31T10:06:58.432Z,9452.00
2018-03-31T10:07:58.406Z,9432.00
2018-03-31T10:08:58.340Z,10444.00
2018-03-31T10:09:58.606Z,12356.00
2018-03-31T10:10:58.279Z,11268.00
2018-03-31T10:11:58.201Z,10376.00
2018-03-31T10:12:58.182Z,10116.00
2018-03-31T10:13:58.171Z,10732.00
2018-03-31T10:14:58.062Z,11396.00
2018-03-31T10:15:58.018Z,10876.00
2018-03-31T10:16:57.974Z,9756.00
2018-03-31T10:17:57.951Z,7972.00
2018-03-31T10:18:57.884Z,6984.00
2018-03-31T10:19:57.846Z,6860.00
2018-03-31T10:20:57.792Z,6908.00
2018-03-31T10:21:57.813Z,6864.00
2018-03-31T10:22:57.722Z,7308.00
2018-03-31T10:23:57.654Z,7292.00
2018-03-31T10:24:57.625Z,7060.00
2018-03-31T10:25:57.560Z,7184.00
2018-03-31T10:26:57.512Z,7688.00
2018-03-31T10:27:57.497Z,6900.00
2018-03-31T10:28:57.426Z,6132.00
2018-03-31T10:29:57.384Z,5684.00
2018-03-31T10:30:57.332Z,5252.00
2018-03-31T10:31:57.293Z,5116.00
2018-03-31T10:32:57.269Z,5344.00
2018-03-31T10:33:57.199Z,5632.00
2018-03-31T10:34:57.154Z,5652.00
2018-03-31T10:35:57.110Z,5736.00
2018-03-31T10:36:57.057Z,5788.00
2018-03-31T10:37:57.040Z,5624.00
2018-03-31T10:38:56.992Z,5564.00
2018-03-31T10:39:56.926Z,6144.00
2018-03-31T10:40:56.879Z,6448.00
2018-03-31T10:41:56.828Z,6672.00
2018-03-31T10:42:56.784Z,6784.00
2018-03-31T10:43:56.769Z,6480.00
2018-03-31T10:44:56.694Z,6556.00
2018-03-31T10:45:56.647Z,6612.00
2018-03-31T10:46:56.601Z,5864.00
2018-03-31T10:47:56.555Z,5516.00
2018-03-31T10:48:56.535Z,5780.00
2018-03-31T10:49:56.466Z,6188.00
2018-03-31T10:50:56.417Z,6252.00
2018-03-31T10:51:56.373Z,6128.00
2018-03-31T10:52:56.325Z,6408.00
2018-03-31T10:53:56.310Z,7020.00
2018-03-31T10:54:56.236Z,7628.00
2018-03-31T10:55:56.185Z,8612.00
2018-03-31T10:56:56.140Z,10028.00
2018-03-31T10:57:56.098Z,10692.00
2018-03-31T10:58:56.073Z,10352.00
2018-03-31T10:59:56.015Z,9300.00
2018-03-31T11:00:55.963Z,7060.00
2018-03-31T11:01:55.910Z,6336.00
2018-03-31T11:02:55.866Z,6300.00
2018-03-31T11:03:55.846Z,6536.00
2018-03-31T11:04:55.774Z,6248.00
2018-03-31T11:05:55.736Z,5816.00
2018-03-31T11:06:55.688Z,5756.00
2018-03-31T11:07:55.640Z,5868.00
2018-03-31T11:08:55.618Z,6300.00
2018-03-31T11:09:55.548Z,6276.00
2018-03-31T11:10:55.527Z,5856.00
2018-03-31T11:11:55.455Z,5868.00
2018-03-31T11:12:55.475Z,5556.00
2018-03-31T11:13:55.363Z,5432.00
2018-03-31T11:14:55.316Z,5796.00
2018-03-31T11:15:55.314Z,5916.00
2018-03-31T11:16:55.227Z,6312.00
2018-03-31T11:17:55.196Z,6740.00
2018-03-31T11:18:55.132Z,7092.00
2018-03-31T11:19:55.088Z,8248.00
2018-03-31T11:20:55.043Z,9868.00
2018-03-31T11:21:55.027Z,9060.00
2018-03-31T11:22:54.952Z,8764.00
2018-03-31T11:23:54.929Z,10072.00
2018-03-31T11:24:54.859Z,10012.00
2018-03-31T11:25:54.817Z,8940.00
2018-03-31T11:26:54.798Z,8824.00
2018-03-31T11:27:54.722Z,8288.00
2018-03-31T11:28:54.677Z,6748.00
2018-03-31T11:29:54.640Z,5360.00
2018-03-31T11:30:54.601Z,5264.00
2018-03-31T11:31:54.567Z,5604.00
2018-03-31T11:32:54.491Z,5848.00
2018-03-31T11:33:54.454Z,6780.00
2018-03-31T11:34:54.404Z,7464.00
2018-03-31T11:35:54.361Z,7656.00
2018-03-31T11:36:54.340Z,7244.00
2018-03-31T11:37:54.267Z,7632.00
2018-03-31T11:38:54.232Z,7864.00
2018-03-31T11:39:54.175Z,7616.00
2018-03-31T11:40:54.134Z,6660.00
2018-03-31T11:41:54.109Z,5132.00
2018-03-31T11:42:54.040Z,4836.00
2018-03-31T11:43:53.993Z,4912.00
2018-03-31T11:44:53.948Z,6020.00
2018-03-31T11:45:53.903Z,7104.00
2018-03-31T11:46:53.881Z,7676.00
2018-03-31T11:47:53.809Z,8552.00
2018-03-31T11:48:53.771Z,9212.00
2018-03-31T11:49:53.716Z,10160.00
2018-03-31T11:50:53.671Z,9820.00
2018-03-31T11:51:53.654Z,9184.00
2018-03-31T11:52:53.581Z,8900.00
2018-03-31T11:53:53.538Z,9032.00
2018-03-31T11:54:53.491Z,9044.00
2018-03-31T11:55:53.447Z,7732.00
2018-03-31T11:56:53.427Z,5796.00
2018-03-31T11:57:53.389Z,4976.00
2018-03-31T11:58:53.310Z,4540.00
2018-03-31T11:59:53.266Z,4336.00
2018-03-31T12:00:53.232Z,4508.00
2018-03-31T12:01:53.195Z,4756.00
2018-03-31T12:02:53.124Z,4672.00
2018-03-31T12:03:53.079Z,4724.00
2018-03-31T12:04:53.042Z,4756.00
2018-03-31T12:05:52.990Z,5240.00
2018-03-31T12:06:52.984Z,5940.00
2018-03-31T12:07:52.894Z,6388.00
2018-03-31T12:08:52.860Z,6752.00
2018-03-31T12:09:52.806Z,7600.00
2018-03-31T12:10:52.760Z,8432.00
2018-03-31T12:11:52.748Z,8804.00
2018-03-31T12:12:52.698Z,9388.00
2018-03-31T12:13:52.622Z,10348.00
2018-03-31T12:14:52.578Z,10568.00
2018-03-31T12:15:52.531Z,11096.00
2018-03-31T12:16:52.483Z,11560.00
2018-03-31T12:17:52.475Z,11932.00
2018-03-31T12:18:52.754Z,10448.00
2018-03-31T12:19:52.349Z,8328.00
2018-03-31T12:20:52.301Z,7532.00
2018-03-31T12:21:52.257Z,7864.00
2018-03-31T12:22:52.242Z,8596.00
2018-03-31T12:23:52.171Z,8172.00
2018-03-31T12:24:52.122Z,7616.00
2018-03-31T12:25:52.074Z,7912.00
2018-03-31T12:26:52.032Z,8412.00
2018-03-31T12:27:52.009Z,7864.00
2018-03-31T12:28:51.964Z,6564.00
2018-03-31T12:29:51.959Z,5344.00
2018-03-31T12:30:51.850Z,4700.00
2018-03-31T12:31:51.849Z,4608.00
2018-03-31T12:32:51.763Z,4684.00
2018-03-31T12:33:51.739Z,4752.00
2018-03-31T12:34:51.675Z,5316.00
2018-03-31T12:35:51.623Z,6416.00
2018-03-31T12:36:51.578Z,7712.00